createdAt,value
2018-08-08T00:00:43.123Z,16.80
2018-08-08T00:03:11.633Z,11.83
2018-08-08T00:05:39.977Z,10.60
2018-08-08T00:08:08.340Z,22.47
2018-08-08T00:10:36.765Z,15.80
2018-08-08T00:13:05.170Z,24.30
2018-08-08T00:15:33.473Z,10.37
2018-08-08T00:18:01.787Z,12.97
2018-08-08T00:20:30.161Z,15.83
2018-08-08T00:22:58.524Z,23.13
2018-08-08T00:25:26.838Z,12.97
2018-08-08T00:27:55.214Z,17.70
2018-08-08T00:30:23.622Z,12.40
2018-08-08T00:32:52.005Z,12.60
2018-08-08T00:35:20.370Z,19.63
2018-08-08T00:37:48.689Z,14.27
2018-08-08T00:40:17.072Z,10.70
2018-08-08T00:42:46.006Z,13.97
2018-08-08T00:45:16.601Z,17.17
2018-08-08T00:47:46.026Z,14.20
2018-08-08T00:50:15.454Z,13.57
2018-08-08T00:52:44.223Z,15.40
2018-08-08T00:55:12.678Z,15.60
2018-08-08T00:57:41.500Z,17.97
2018-08-08T01:00:14.077Z,12.80
2018-08-08T01:02:42.484Z,13.77
2018-08-08T01:05:12.167Z,17.00
2018-08-08T01:07:41.210Z,15.40
2018-08-08T01:10:10.063Z,14.10
2018-08-08T01:12:38.457Z,30.53
2018-08-08T01:15:09.247Z,15.83
2018-08-08T01:17:37.753Z,25.70
2018-08-08T01:20:08.638Z,17.50
2018-08-08T01:22:37.378Z,49.47
2018-08-08T01:25:07.033Z,26.83
2018-08-08T01:27:35.348Z,34.53
2018-08-08T01:30:06.204Z,32.17
2018-08-08T01:32:34.665Z,49.27
2018-08-08T01:35:03.213Z,25.90
2018-08-08T01:37:31.563Z,26.93
2018-08-08T01:39:59.999Z,26.43
2018-08-08T01:42:28.404Z,24.63
2018-08-08T01:44:56.934Z,25.53
2018-08-08T01:47:25.418Z,17.63
2018-08-08T01:49:53.813Z,25.10
2018-08-08T01:52:23.155Z,20.10
2018-08-08T01:54:51.461Z,22.43
2018-08-08T01:57:19.766Z,26.87
2018-08-08T01:59:48.081Z,25.27
2018-08-08T02:02:16.393Z,30.20
2018-08-08T02:04:44.962Z,18.47
2018-08-08T02:07:13.323Z,11.30
2018-08-08T02:09:41.629Z,17.23
2018-08-08T02:12:09.926Z,14.30
2018-08-08T02:14:39.157Z,17.90
2018-08-08T02:17:08.614Z,26.00
2018-08-08T02:19:38.363Z,32.83
2018-08-08T02:22:07.908Z,34.57
2018-08-08T02:24:37.856Z,22.50
2018-08-08T02:27:09.459Z,33.00
2018-08-08T02:29:42.057Z,30.60
2018-08-08T02:32:14.159Z,32.73
2018-08-08T02:34:44.957Z,41.60
2018-08-08T02:37:15.070Z,31.13
2018-08-08T02:39:46.371Z,34.57
2018-08-08T02:42:17.179Z,22.03
2018-08-08T02:44:48.409Z,22.73
2018-08-08T02:47:23.793Z,36.20
2018-08-08T02:49:54.470Z,33.77
2018-08-08T02:52:23.288Z,22.17
2018-08-08T02:54:52.182Z,18.50
2018-08-08T02:57:20.796Z,43.83
2018-08-08T02:59:49.183Z,17.13
2018-08-08T03:02:17.528Z,34.87
2018-08-08T03:04:45.836Z,20.23
2018-08-08T03:07:14.162Z,23.50
2018-08-08T03:09:42.491Z,22.17
2018-08-08T03:12:10.853Z,31.80
2018-08-08T03:14:39.276Z,22.40
2018-08-08T03:17:07.630Z,27.70
2018-08-08T03:19:35.990Z,22.47
2018-08-08T03:22:04.361Z,23.13
2018-08-08T03:24:32.741Z,20.90
2018-08-08T03:27:01.072Z,23.67
2018-08-08T03:29:29.408Z,26.23
2018-08-08T03:31:57.725Z,20.20
2018-08-08T03:34:26.096Z,20.07
2018-08-08T03:36:54.840Z,32.60
2018-08-08T03:39:23.344Z,30.50
2018-08-08T03:41:51.651Z,34.87
2018-08-08T03:44:20.003Z,28.00
2018-08-08T03:46:48.812Z,25.20
2018-08-08T03:49:17.154Z,35.67
2018-08-08T03:51:45.473Z,19.73
2018-08-08T03:54:14.031Z,22.37
2018-08-08T03:56:42.386Z,16.77
2018-08-08T03:59:10.780Z,38.13
2018-08-08T04:01:39.133Z,15.03
2018-08-08T04:04:07.485Z,25.03
2018-08-08T04:06:40.733Z,27.93
2018-08-08T04:09:10.560Z,24.10
2018-08-08T04:11:39.046Z,25.50
2018-08-08T04:14:07.523Z,28.17
2018-08-08T04:16:36.264Z,21.47
2018-08-08T04:19:04.725Z,23.47
2018-08-08T04:21:33.602Z,19.67
2018-08-08T04:24:02.075Z,34.87
2018-08-08T04:26:30.689Z,26.07
2018-08-08T04:28:59.210Z,24.17
2018-08-08T04:31:27.732Z,15.53
2018-08-08T04:33:56.329Z,19.10
2018-08-08T04:36:24.728Z,17.07
2018-08-08T04:38:53.190Z,13.27
2018-08-08T04:41:22.380Z,21.63
2018-08-08T04:43:50.766Z,13.20
2018-08-08T04:46:19.180Z,17.80
2018-08-08T04:48:47.493Z,21.77
2018-08-08T04:51:15.836Z,16.73
2018-08-08T04:53:44.128Z,19.77
2018-08-08T04:56:12.549Z,14.63
2018-08-08T04:58:41.549Z,23.40
2018-08-08T05:01:09.869Z,30.27
2018-08-08T05:03:38.572Z,29.03
2018-08-08T05:06:06.906Z,30.53
2018-08-08T05:08:35.218Z,34.40
2018-08-08T05:11:03.491Z,21.20
2018-08-08T05:13:32.276Z,22.80
2018-08-08T05:16:00.640Z,28.63
2018-08-08T05:18:28.992Z,25.17
2018-08-08T05:20:57.297Z,31.47
2018-08-08T05:23:25.654Z,24.10
2018-08-08T05:25:53.974Z,23.80
2018-08-08T05:28:22.288Z,14.57
2018-08-08T05:30:50.597Z,21.77
2018-08-08T05:33:18.887Z,21.50
2018-08-08T05:35:47.288Z,26.07
2018-08-08T05:38:15.729Z,28.63
2018-08-08T05:40:44.116Z,23.23
2018-08-08T05:43:12.462Z,23.93
2018-08-08T05:45:40.816Z,30.50
2018-08-08T05:48:09.230Z,18.90
2018-08-08T05:50:37.648Z,15.23
2018-08-08T05:53:06.076Z,31.03
2018-08-08T05:55:34.541Z,19.83
2018-08-08T05:58:02.888Z,21.10
2018-08-08T06:00:31.670Z,25.27
2018-08-08T06:03:00.129Z,29.33
2018-08-08T06:05:28.557Z,18.30
2018-08-08T06:07:58.140Z,22.93
2018-08-08T06:10:26.892Z,20.80
2018-08-08T06:12:55.573Z,26.43
2018-08-08T06:15:26.583Z,13.70
2018-08-08T06:17:55.119Z,21.13
2018-08-08T06:20:23.967Z,21.57
2018-08-08T06:22:53.026Z,15.83
2018-08-08T06:25:21.712Z,13.37
2018-08-08T06:27:52.692Z,20.50
2018-08-08T06:30:24.021Z,20.33
2018-08-08T06:32:53.527Z,15.07
2018-08-08T06:35:24.545Z,20.10
2018-08-08T06:37:53.569Z,23.43
2018-08-08T06:40:22.037Z,20.00
2018-08-08T06:42:50.496Z,21.53
2018-08-08T06:45:20.747Z,15.13
2018-08-08T06:47:49.878Z,9.80
2018-08-08T06:50:18.902Z,16.30
2018-08-08T06:52:47.728Z,19.20
2018-08-08T06:55:17.303Z,14.10
2018-08-08T06:57:48.516Z,18.70
2018-08-08T07:00:21.543Z,15.93
2018-08-08T07:02:53.650Z,20.43
2018-08-08T07:05:25.173Z,23.13
2018-08-08T07:07:55.616Z,22.50
2018-08-08T07:10:26.129Z,24.17
2018-08-08T07:12:54.521Z,18.40
2018-08-08T07:15:22.922Z,18.20
2018-08-08T07:17:51.434Z,14.57
2018-08-08T07:20:22.267Z,11.70
2018-08-08T07:22:51.777Z,13.37
2018-08-08T07:25:20.302Z,12.10
2018-08-08T07:27:48.888Z,10.90
2018-08-08T07:30:18.618Z,9.33
2018-08-08T07:32:46.976Z,19.80
2018-08-08T07:35:15.477Z,13.10
2018-08-08T07:37:45.043Z,19.73
2018-08-08T07:40:14.661Z,18.73
2018-08-08T07:42:43.394Z,15.53
2018-08-08T07:45:19.661Z,15.27
2018-08-08T07:47:48.256Z,10.77
2018-08-08T07:50:16.673Z,8.67
2018-08-08T07:52:45.461Z,6.13
2018-08-08T07:55:15.408Z,11.10
2018-08-08T07:57:44.029Z,13.80
2018-08-08T08:00:29.764Z,9.40
2018-08-08T08:02:58.911Z,11.20
2018-08-08T08:05:27.404Z,10.30
2018-08-08T08:07:56.401Z,13.03
2018-08-08T08:10:24.698Z,10.53
2018-08-08T08:12:53.063Z,16.80
2018-08-08T08:15:21.378Z,10.80
2018-08-08T08:17:50.092Z,12.47
2018-08-08T08:20:19.312Z,16.70
2018-08-08T08:22:48.568Z,9.00
2018-08-08T08:25:16.956Z,11.90
2018-08-08T08:27:45.276Z,11.50
2018-08-08T08:30:18.026Z,12.90
2018-08-08T08:32:46.693Z,23.80
2018-08-08T08:35:15.264Z,10.13
2018-08-08T08:37:47.026Z,14.53
2018-08-08T08:40:15.610Z,15.10
2018-08-08T08:42:44.358Z,17.73
2018-08-08T08:45:12.874Z,16.13
2018-08-08T08:47:42.899Z,14.50
2018-08-08T08:50:11.832Z,10.60
2018-08-08T08:52:41.005Z,16.77
2018-08-08T08:55:09.774Z,18.27
2018-08-08T08:57:38.499Z,11.63
2018-08-08T09:00:10.049Z,21.73
2018-08-08T09:02:39.202Z,23.40
2018-08-08T09:05:09.977Z,23.53
2018-08-08T09:07:38.878Z,13.03
2018-08-08T09:10:08.982Z,16.57
2018-08-08T09:12:40.682Z,12.60
2018-08-08T09:15:11.193Z,19.87
2018-08-08T09:17:40.152Z,17.03
2018-08-08T09:20:09.260Z,10.10
2018-08-08T09:22:38.932Z,15.10
2018-08-08T09:25:08.019Z,19.20
2018-08-08T09:27:36.589Z,12.97
2018-08-08T09:30:07.306Z,14.53
2018-08-08T09:32:37.255Z,16.43
2018-08-08T09:35:05.951Z,14.17
2018-08-08T09:37:35.501Z,16.03
2018-08-08T09:40:04.563Z,13.93
2018-08-08T09:42:32.882Z,19.53
2018-08-08T09:45:01.441Z,18.57
2018-08-08T09:47:29.730Z,17.00
2018-08-08T09:49:58.056Z,16.10
2018-08-08T09:52:26.864Z,16.23
2018-08-08T09:54:55.335Z,21.53
2018-08-08T09:57:23.891Z,10.43
2018-08-08T09:59:52.788Z,14.40
2018-08-08T10:02:28.936Z,13.13
2018-08-08T10:04:58.120Z,15.57
2018-08-08T10:07:26.977Z,13.93
2018-08-08T10:09:57.682Z,26.90
2018-08-08T10:12:26.292Z,25.30
2018-08-08T10:14:54.684Z,13.57
2018-08-08T10:17:23.341Z,12.90
2018-08-08T10:19:51.684Z,14.77
2018-08-08T10:22:20.003Z,12.73
2018-08-08T10:24:48.340Z,15.03
2018-08-08T10:27:17.765Z,19.47
2018-08-08T10:29:46.065Z,13.20
2018-08-08T10:32:17.089Z,17.00
2018-08-08T10:34:46.394Z,12.30
2018-08-08T10:37:15.236Z,13.67
2018-08-08T10:39:44.935Z,21.43
2018-08-08T10:42:13.767Z,19.00
2018-08-08T10:44:42.311Z,26.63
2018-08-08T10:47:12.973Z,15.37
2018-08-08T10:49:41.905Z,20.77
2018-08-08T10:52:15.220Z,12.53
2018-08-08T10:54:46.445Z,22.87
2018-08-08T10:57:17.582Z,11.33
2018-08-08T10:59:46.389Z,14.20
2018-08-08T11:02:14.640Z,8.00
2018-08-08T11:04:42.961Z,11.63
2018-08-08T11:07:11.274Z,8.57
2018-08-08T11:09:39.592Z,12.33
2018-08-08T11:12:12.473Z,8.43
2018-08-08T11:14:40.878Z,9.60
2018-08-08T11:17:09.467Z,14.33
2018-08-08T11:19:38.782Z,16.97
2018-08-08T11:22:07.346Z,12.57
2018-08-08T11:24:35.661Z,28.03
2018-08-08T11:27:03.999Z,14.63
2018-08-08T11:29:32.352Z,10.40
2018-08-08T11:35:03.103Z,15.53
2018-08-08T11:37:35.019Z,14.23
2018-08-08T11:42:54.450Z,11.70
2018-08-08T11:45:42.360Z,13.67
2018-08-08T11:48:21.359Z,18.83
2018-08-08T11:51:21.388Z,14.77
2018-08-08T11:56:45.215Z,13.47
2018-08-08T11:59:17.608Z,17.63
2018-08-08T12:01:48.608Z,15.83
2018-08-08T12:04:24.355Z,19.03
2018-08-08T12:07:05.124Z,11.53
2018-08-08T12:09:34.569Z,20.13
2018-08-08T12:12:17.272Z,12.67
2018-08-08T12:14:46.327Z,23.33
2018-08-08T12:17:14.743Z,11.20
2018-08-08T12:19:43.209Z,28.23
2018-08-08T12:22:15.710Z,28.80
2018-08-08T12:24:44.190Z,11.50
2018-08-08T12:27:13.572Z,11.70
2018-08-08T12:29:42.977Z,19.60
2018-08-08T12:32:11.544Z,11.90
2018-08-08T12:34:39.961Z,12.83
2018-08-08T12:37:08.407Z,27.33
2018-08-08T12:39:37.461Z,14.77
2018-08-08T12:42:06.563Z,13.60
2018-08-08T12:44:35.118Z,15.80
2018-08-08T12:47:06.503Z,16.20
2018-08-08T12:49:38.186Z,16.00
2018-08-08T12:52:07.863Z,13.80
2018-08-08T12:54:37.775Z,12.30
2018-08-08T12:57:08.563Z,18.27
2018-08-08T12:59:38.808Z,14.17
2018-08-08T13:02:08.451Z,11.80
2018-08-08T13:04:40.895Z,14.70
2018-08-08T13:07:12.302Z,17.77
2018-08-08T13:09:41.295Z,14.33
2018-08-08T13:12:11.609Z,13.10
2018-08-08T13:14:40.367Z,15.40
2018-08-08T13:17:10.079Z,7.83
2018-08-08T13:19:41.057Z,10.23
2018-08-08T13:22:09.924Z,14.60
2018-08-08T13:24:40.287Z,8.90
2018-08-08T13:27:09.372Z,13.20
2018-08-08T13:29:38.177Z,6.93
2018-08-08T13:32:17.377Z,8.53
2018-08-08T13:34:47.215Z,14.83
2018-08-08T13:37:16.370Z,9.67
2018-08-08T13:39:46.237Z,11.83
2018-08-08T13:42:16.503Z,15.53
2018-08-08T13:44:46.786Z,17.93
2018-08-08T13:47:15.835Z,10.00
2018-08-08T13:49:44.970Z,9.80
2018-08-08T13:52:16.427Z,15.40
2018-08-08T13:54:46.703Z,5.90
2018-08-08T13:57:15.564Z,7.27
2018-08-08T13:59:44.635Z,12.50
2018-08-08T14:02:14.126Z,12.73
2018-08-08T14:04:45.248Z,17.30
2018-08-08T14:07:14.391Z,12.60
2018-08-08T14:09:42.803Z,11.37
2018-08-08T14:12:11.738Z,13.90
2018-08-08T14:14:40.104Z,7.20
2018-08-08T14:17:08.886Z,13.60
2018-08-08T14:19:37.441Z,12.13
2018-08-08T14:22:06.088Z,19.63
2018-08-08T14:24:34.471Z,13.73
2018-08-08T14:27:02.905Z,13.60
2018-08-08T14:29:31.815Z,9.80
2018-08-08T14:32:00.169Z,13.63
2018-08-08T14:34:28.498Z,7.80
2018-08-08T14:36:56.848Z,12.80
2018-08-08T14:39:25.199Z,14.57
2018-08-08T14:41:53.513Z,11.37
2018-08-08T14:44:21.870Z,10.30
2018-08-08T14:46:50.151Z,18.00
2018-08-08T14:49:18.476Z,8.53
2018-08-08T14:51:46.998Z,7.70
2018-08-08T14:54:15.395Z,12.33
2018-08-08T14:56:43.696Z,14.90
2018-08-08T14:59:12.208Z,13.03
2018-08-08T15:01:40.616Z,13.50
2018-08-08T15:04:09.049Z,15.50
2018-08-08T15:06:37.637Z,15.30
2018-08-08T15:09:09.562Z,10.87
2018-08-08T15:11:37.971Z,11.40
2018-08-08T15:14:06.591Z,11.27
2018-08-08T15:16:35.008Z,12.30
2018-08-08T15:19:03.381Z,11.07
2018-08-08T15:21:31.741Z,14.17
2018-08-08T15:24:00.490Z,11.03
2018-08-08T15:26:29.370Z,9.30
2018-08-08T15:28:57.997Z,10.20
2018-08-08T15:31:26.566Z,15.53
2018-08-08T15:33:55.618Z,6.30
2018-08-08T15:36:24.143Z,10.10
2018-08-08T15:38:52.496Z,7.73
2018-08-08T15:41:21.128Z,10.50
2018-08-08T15:43:49.413Z,18.10
2018-08-08T15:46:17.833Z,8.77
2018-08-08T15:48:46.140Z,12.93
2018-08-08T15:51:14.631Z,14.63
2018-08-08T15:53:43.210Z,9.20
2018-08-08T15:56:11.744Z,11.13
2018-08-08T15:58:40.533Z,12.17
2018-08-08T16:01:08.876Z,9.30
2018-08-08T16:03:37.839Z,7.83
2018-08-08T16:06:06.511Z,9.07
2018-08-08T16:08:37.685Z,7.73
2018-08-08T16:11:06.742Z,12.73
2018-08-08T16:13:35.873Z,7.47
2018-08-08T16:16:04.329Z,7.90
2018-08-08T16:18:32.720Z,8.37
2018-08-08T16:21:01.080Z,9.53
2018-08-08T16:23:29.493Z,6.77
2018-08-08T16:25:57.977Z,9.53
2018-08-08T16:28:26.372Z,7.00
2018-08-08T16:30:54.808Z,10.00
2018-08-08T16:33:24.753Z,13.20
2018-08-08T16:35:53.029Z,6.40
2018-08-08T16:38:21.450Z,9.77
2018-08-08T16:40:49.755Z,9.10
2018-08-08T16:43:18.132Z,7.70
2018-08-08T16:45:46.722Z,6.87
2018-08-08T16:48:15.045Z,11.60
2018-08-08T16:50:43.317Z,15.03
2018-08-08T16:53:11.674Z,5.03
2018-08-08T16:55:39.992Z,7.83
2018-08-08T16:58:08.364Z,7.80
2018-08-08T17:00:36.723Z,9.53
2018-08-08T17:03:05.064Z,7.70
2018-08-08T17:05:33.365Z,5.30
2018-08-08T17:08:01.662Z,6.30
2018-08-08T17:10:30.189Z,9.90
2018-08-08T17:12:58.543Z,7.87
2018-08-08T17:15:26.897Z,6.30
2018-08-08T17:17:55.192Z,7.47
2018-08-08T17:20:23.642Z,11.47
2018-08-08T17:22:51.925Z,9.10
2018-08-08T17:25:20.247Z,14.53
2018-08-08T17:27:48.649Z,14.43
2018-08-08T17:30:17.028Z,5.50
2018-08-08T17:32:45.359Z,7.97
2018-08-08T17:35:17.994Z,11.03
2018-08-08T17:37:46.912Z,6.03
2018-08-08T17:40:15.184Z,7.53
2018-08-08T17:42:43.837Z,6.60
2018-08-08T17:45:12.242Z,6.80
2018-08-08T17:47:40.716Z,5.17
2018-08-08T17:50:09.485Z,5.20
2018-08-08T17:52:38.149Z,4.90
2018-08-08T17:55:06.522Z,7.10
2018-08-08T17:57:34.984Z,14.33
2018-08-08T18:00:03.438Z,10.87
2018-08-08T18:02:31.938Z,4.97
2018-08-08T18:05:00.275Z,11.93
2018-08-08T18:07:28.867Z,7.50
2018-08-08T18:09:57.168Z,6.07
2018-08-08T18:12:25.577Z,13.60
2018-08-08T18:14:53.932Z,16.20
2018-08-08T18:17:22.358Z,7.93
2018-08-08T18:19:50.668Z,7.00
2018-08-08T18:22:19.122Z,6.13
2018-08-08T18:24:47.822Z,10.07
2018-08-08T18:27:16.460Z,9.20
2018-08-08T18:29:45.004Z,7.70
2018-08-08T18:32:13.637Z,12.53
2018-08-08T18:34:42.479Z,11.93
2018-08-08T18:37:11.797Z,8.63
2018-08-08T18:39:40.856Z,6.83
2018-08-08T18:42:09.684Z,7.77
2018-08-08T18:44:38.104Z,6.50
2018-08-08T18:47:11.030Z,8.80
2018-08-08T18:49:39.389Z,6.53
2018-08-08T18:52:07.789Z,5.90
2018-08-08T18:54:36.783Z,6.40
2018-08-08T18:57:05.354Z,17.23
2018-08-08T18:59:37.090Z,5.47
2018-08-08T19:02:06.242Z,5.40
2018-08-08T19:04:35.965Z,15.23
2018-08-08T19:07:05.195Z,6.07
2018-08-08T19:09:34.090Z,5.10
2018-08-08T19:12:11.903Z,6.53
2018-08-08T19:14:40.982Z,7.90
2018-08-08T19:17:10.325Z,7.80
2018-08-08T19:19:41.063Z,5.37
2018-08-08T19:22:10.866Z,10.67
2018-08-08T19:24:43.400Z,9.23
2018-08-08T19:27:13.335Z,10.90
2018-08-08T19:29:45.156Z,11.57
2018-08-08T19:32:16.474Z,6.90
2018-08-08T19:34:45.556Z,5.57
2018-08-08T19:37:17.064Z,8.63
2018-08-08T19:39:46.211Z,6.23
2018-08-08T19:42:15.834Z,5.63
2018-08-08T19:44:46.139Z,4.70
2018-08-08T19:47:18.399Z,7.03
2018-08-08T19:49:48.134Z,5.50
2018-08-08T19:52:23.086Z,12.03
2018-08-08T19:54:54.624Z,4.87
2018-08-08T19:57:30.060Z,3.07
2018-08-08T19:59:59.981Z,6.40
2018-08-08T20:02:31.924Z,5.97
2018-08-08T20:05:05.488Z,8.10
2018-08-08T20:07:49.790Z,8.03
2018-08-08T20:10:21.686Z,6.27
2018-08-08T20:15:32.214Z,6.93
2018-08-08T20:18:01.373Z,3.73
2018-08-08T20:20:30.620Z,7.20
2018-08-08T20:22:59.598Z,6.70
2018-08-08T20:25:28.600Z,7.37
2018-08-08T21:12:52.365Z,2.67
2018-08-08T21:15:21.109Z,9.37
2018-08-08T21:17:49.698Z,11.63
2018-08-08T21:20:18.277Z,4.17
2018-08-08T21:22:46.728Z,8.47
2018-08-08T21:25:15.408Z,6.73
2018-08-08T21:27:44.152Z,4.87
2018-08-08T21:30:12.874Z,5.70
2018-08-08T21:32:41.285Z,2.87
2018-08-08T21:35:10.357Z,10.43
2018-08-08T21:37:39.548Z,6.83
2018-08-08T21:40:08.580Z,18.60
2018-08-08T21:42:38.164Z,13.40
2018-08-08T21:45:07.227Z,11.83
2018-08-08T21:47:35.673Z,6.93
2018-08-08T21:50:04.910Z,7.63
2018-08-08T21:52:33.364Z,13.40
2018-08-08T21:55:13.300Z,8.87
2018-08-08T21:57:53.208Z,5.90
2018-08-08T22:00:32.896Z,5.80
2018-08-08T22:03:15.491Z,11.00
2018-08-08T22:05:55.285Z,7.70
2018-08-08T22:09:32.438Z,10.30
2018-08-08T22:12:11.969Z,7.60
2018-08-08T22:14:51.691Z,4.97
2018-08-08T22:17:32.627Z,7.63
2018-08-08T22:20:01.328Z,8.10
2018-08-08T22:22:29.902Z,17.30
2018-08-08T22:24:58.567Z,14.83
2018-08-08T22:27:27.110Z,6.97
2018-08-08T22:29:56.836Z,10.93
2018-08-08T22:32:25.332Z,12.13
2018-08-08T22:34:53.774Z,10.87
2018-08-08T22:37:22.327Z,6.30
2018-08-08T22:39:50.830Z,7.90
2018-08-08T22:42:19.198Z,6.27
2018-08-08T22:44:47.605Z,7.30
2018-08-08T22:47:16.018Z,9.73
2018-08-08T22:49:44.396Z,6.97
2018-08-08T22:52:12.857Z,6.77
2018-08-08T22:54:41.260Z,24.07
2018-08-08T22:57:09.657Z,4.63
2018-08-08T22:59:38.027Z,18.57
2018-08-08T23:02:06.400Z,6.07
2018-08-08T23:04:34.797Z,8.27
2018-08-08T23:07:03.164Z,6.30
2018-08-08T23:09:31.555Z,6.07
2018-08-08T23:11:59.893Z,5.37
2018-08-08T23:14:28.258Z,9.20
2018-08-08T23:16:56.632Z,5.93
2018-08-08T23:19:25.025Z,4.37
2018-08-08T23:21:53.487Z,8.13
2018-08-08T23:24:21.861Z,8.90
2018-08-08T23:26:50.255Z,6.30
2018-08-08T23:29:18.605Z,7.90
2018-08-08T23:31:47.004Z,5.27
2018-08-08T23:34:15.489Z,5.40
2018-08-08T23:36:45.020Z,4.70
2018-08-08T23:39:13.330Z,10.33
2018-08-08T23:41:41.620Z,8.53
2018-08-08T23:44:09.936Z,9.63
2018-08-08T23:46:38.303Z,8.70
2018-08-08T23:49:06.657Z,8.40
2018-08-08T23:51:34.992Z,7.17
2018-08-08T23:54:03.341Z,7.47
2018-08-08T23:56:31.625Z,17.07
2018-08-08T23:58:59.968Z,7.43
